Time;durP1;ratioP1;P1;durP2;ratioP2;P2;SDS_P1;SDS_P2;PMS_P1;PMS_P2;Temp;Humidity;BMP_temperature;BMP_pressure;BME280_temperature;BME280_humidity;BME280_pressure;Samples;Min_cycle;Max_cycle;Signal;HPM_P1;HPM_P2
2021/10/23 00:01:57;;;;;;;8.20;3.58;;;;;;;11.69;62.50;102369.38;4850763;29;114175;-66
2021/10/23 00:04:24;;;;;;;10.57;3.35;;;;;;;11.68;62.40;102372.97;4855199;28;114218;-66
2021/10/23 00:06:52;;;;;;;8.25;3.38;;;;;;;11.67;62.67;102374.72;4847478;29;124465;-66
2021/10/23 00:09:19;;;;;;;13.25;3.95;;;;;;;11.68;62.51;102378.28;4853893;29;124377;-66
2021/10/23 00:11:48;;;;;;;7.78;3.70;;;;;;;11.68;62.70;102380.94;4844469;29;114378;-66
2021/10/23 00:14:15;;;;;;;10.25;4.20;;;;;;;11.68;62.46;102379.13;4849151;29;115494;-66
2021/10/23 00:16:42;;;;;;;6.97;3.67;;;;;;;11.69;62.63;102377.34;4848513;29;124244;-66
2021/10/23 00:19:09;;;;;;;9.98;3.60;;;;;;;11.69;62.54;102386.16;4845622;29;123663;-66
2021/10/23 00:21:36;;;;;;;9.40;3.70;;;;;;;11.70;62.68;102376.44;4850853;29;114185;-66
2021/10/23 00:24:04;;;;;;;6.75;3.08;;;;;;;11.71;62.59;102388.78;4845889;29;114315;-66
2021/10/23 00:26:31;;;;;;;7.43;3.35;;;;;;;11.71;62.69;102394.09;4844766;29;124399;-66
2021/10/23 00:28:58;;;;;;;9.90;3.90;;;;;;;11.71;62.76;102388.78;4849000;29;124016;-66
2021/10/23 00:31:25;;;;;;;8.02;3.67;;;;;;;11.71;62.81;102394.09;4847333;29;115169;-66
2021/10/23 00:33:54;;;;;;;11.23;3.92;;;;;;;11.72;62.56;102403.81;4847426;29;115100;-66
2021/10/23 00:36:22;;;;;;;10.00;3.70;;;;;;;11.72;62.52;102400.31;4849107;29;123848;-66
2021/10/23 00:38:49;;;;;;;6.90;3.40;;;;;;;11.73;62.53;102405.56;4841045;29;124692;-66
2021/10/23 00:41:17;;;;;;;7.05;3.67;;;;;;;11.76;62.85;102412.59;4850762;29;113863;-66
2021/10/23 00:43:45;;;;;;;10.32;3.42;;;;;;;11.77;62.71;102399.28;4845411;28;114394;-66
2021/10/23 00:46:13;;;;;;;7.00;3.97;;;;;;;11.77;62.68;102399.28;4843638;29;124089;-67
2021/10/23 00:48:41;;;;;;;8.23;3.97;;;;;;;11.76;62.63;102397.53;4839141;29;124255;-66
2021/10/23 00:51:10;;;;;;;7.65;3.67;;;;;;;11.77;62.67;102401.94;4852060;29;114026;-66
2021/10/23 00:53:37;;;;;;;10.27;4.25;;;;;;;11.75;62.40;102411.69;4849324;29;114339;-66
2021/10/23 00:56:05;;;;;;;9.30;3.80;;;;;;;11.74;62.47;102409.09;4845059;29;124290;-66
2021/10/23 00:58:34;;;;;;;8.00;4.28;;;;;;;11.74;62.60;102414.41;4849028;29;124677;-66
2021/10/23 01:01:01;;;;;;;8.55;4.68;;;;;;;11.73;62.74;102405.56;4854010;29;114382;-67
2021/10/23 01:03:29;;;;;;;7.18;4.20;;;;;;;11.74;62.52;102412.63;4849246;29;116373;-66
2021/10/23 01:05:56;;;;;;;8.98;4.40;;;;;;;11.72;62.72;102401.16;4850141;29;124036;-66
2021/10/23 01:08:23;;;;;;;8.50;4.47;;;;;;;11.71;62.73;102399.41;4845516;29;124817;-66
2021/10/23 01:10:52;;;;;;;6.93;4.20;;;;;;;11.71;62.74;102394.09;4847940;29;115154;-66
2021/10/23 01:13:19;;;;;;;10.27;4.32;;;;;;;11.71;62.80;102388.78;4845376;28;114125;-67
2021/10/23 01:15:46;;;;;;;7.35;4.38;;;;;;;11.71;62.66;102399.41;4843507;29;124312;-67
2021/10/23 01:18:14;;;;;;;7.97;4.32;;;;;;;11.71;62.72;102396.75;4847369;29;123977;-67
2021/10/23 01:20:41;;;;;;;9.32;4.50;;;;;;;11.73;62.68;102397.59;4844079;29;115903;-67
2021/10/23 01:23:09;;;;;;;14.60;5.07;;;;;;;11.73;62.70;102389.63;4847602;28;115397;-69
2021/10/23 01:25:36;;;;;;;10.20;4.70;;;;;;;11.75;62.81;102394.91;4865740;23;123004;-62
2021/10/23 01:28:03;;;;;;;9.77;5.10;;;;;;;11.76;62.92;102397.53;4845637;29;123832;-62
2021/10/23 01:30:32;;;;;;;8.18;5.10;;;;;;;11.77;62.76;102393.97;4849000;29;114875;-62
2021/10/23 01:32:59;;;;;;;9.18;4.68;;;;;;;11.77;62.77;102393.97;4849024;29;113967;-62
2021/10/23 01:35:27;;;;;;;10.88;5.00;;;;;;;11.77;62.76;102393.06;4845322;29;124196;-62
2021/10/23 01:37:56;;;;;;;7.93;5.00;;;;;;;11.76;62.75;102392.22;4842569;29;123970;-62
2021/10/23 01:40:34;;;;;;;10.88;5.15;;;;;;;11.75;62.64;102394.91;4835134;29;114326;-62
2021/10/23 01:43:03;;;;;;;10.10;5.47;;;;;;;11.70;62.63;102381.75;4842019;29;114303;-62
2021/10/23 01:45:31;;;;;;;9.63;5.30;;;;;;;11.68;62.44;102391.53;4843787;29;124412;-62
2021/10/23 01:47:59;;;;;;;9.90;5.60;;;;;;;11.65;62.50;102383.66;4844002;29;123803;-62
2021/10/23 01:50:28;;;;;;;12.68;5.90;;;;;;;11.61;62.42;102388.16;4835093;29;114414;-62
2021/10/23 01:52:57;;;;;;;8.48;5.70;;;;;;;11.60;62.53;102385.53;4847883;29;113793;-62
2021/10/23 01:55:24;;;;;;;11.70;6.57;;;;;;;11.57;62.33;102385.63;4848580;29;124144;-62
2021/10/23 01:57:55;;;;;;;14.38;6.35;;;;;;;11.53;62.49;102378.63;4849926;29;123058;-62
2021/10/23 02:00:22;;;;;;;12.48;6.32;;;;;;;11.48;62.56;102382.28;4844048;29;114587;-62
2021/10/23 02:02:49;;;;;;;13.75;6.30;;;;;;;11.46;62.52;102383.22;4845511;29;114862;-62
2021/10/23 02:05:17;;;;;;;13.15;7.00;;;;;;;11.44;62.36;102377.09;4842994;29;124756;-62
2021/10/23 02:07:44;;;;;;;10.57;6.40;;;;;;;11.40;62.61;102384.25;4851455;29;124043;-62
2021/10/23 02:10:11;;;;;;;13.40;7.32;;;;;;;11.39;62.50;102381.63;4845769;29;115464;-63
2021/10/23 02:12:39;;;;;;;11.93;6.80;;;;;;;11.38;62.51;102385.19;4841988;29;115303;-62
2021/10/23 02:15:07;;;;;;;13.02;7.63;;;;;;;11.34;62.34;102387.06;4853774;29;124430;-62
2021/10/23 02:17:35;;;;;;;14.27;7.95;;;;;;;11.33;62.50;102393.25;4844325;29;124690;-62
2021/10/23 02:20:09;;;;;;;12.75;7.80;;;;;;;11.30;62.22;102388.00;4851982;29;114540;-62
2021/10/23 02:22:38;;;;;;;12.50;7.72;;;;;;;11.27;62.50;102388.97;4843244;29;113945;-62
2021/10/23 02:25:07;;;;;;;12.90;7.78;;;;;;;11.26;62.55;102386.34;4850282;29;124109;-62
2021/10/23 02:27:35;;;;;;;14.20;7.93;;;;;;;11.24;62.40;102393.47;4846310;29;124400;-62
2021/10/23 02:30:07;;;;;;;15.63;7.95;;;;;;;11.22;62.38;102400.59;4847891;29;114284;-62
2021/10/23 02:32:36;;;;;;;15.75;8.63;;;;;;;11.21;62.48;102396.19;4847886;29;114186;-62
2021/10/23 02:35:04;;;;;;;13.52;7.90;;;;;;;11.19;62.58;102395.34;4845474;29;124128;-62
2021/10/23 02:37:31;;;;;;;15.15;8.13;;;;;;;11.16;62.50;102401.59;4846182;29;124092;-62
2021/10/23 02:39:58;;;;;;;15.80;9.05;;;;;;;11.14;62.71;102391.94;4842768;29;113675;-62
2021/10/23 02:42:26;;;;;;;14.85;8.68;;;;;;;11.12;62.55;102404.34;4850423;29;113029;-62
2021/10/23 02:44:53;;;;;;;16.98;8.57;;;;;;;11.09;62.56;102400.88;4847329;29;124133;-62
2021/10/23 02:47:20;;;;;;;14.30;8.52;;;;;;;11.10;62.63;102407.91;4846151;29;124908;-62
2021/10/23 02:49:47;;;;;;;12.68;8.65;;;;;;;11.08;62.83;102412.38;4851890;29;114356;-62
2021/10/23 02:52:16;;;;;;;14.65;8.48;;;;;;;11.07;62.76;102413.25;4851612;28;114209;-61
2021/10/23 02:54:43;;;;;;;14.20;9.13;;;;;;;11.06;62.92;102411.53;4854220;29;123093;-61
2021/10/23 02:57:10;;;;;;;16.63;8.50;;;;;;;11.03;62.50;102406.28;4840736;28;122764;-62
2021/10/23 02:59:40;;;;;;;19.85;10.18;;;;;;;11.01;62.55;102413.41;4853180;29;115392;-62
2021/10/23 03:02:07;;;;;;;19.40;10.05;;;;;;;10.99;62.69;102409.91;4848432;29;115599;-62
2021/10/23 03:04:35;;;;;;;17.27;9.68;;;;;;;10.98;62.80;102415.25;4852659;29;124875;-62
2021/10/23 03:07:02;;;;;;;15.95;9.23;;;;;;;10.97;62.89;102422.34;4844170;29;123706;-62
2021/10/23 03:09:30;;;;;;;16.45;9.73;;;;;;;10.95;62.62;102413.53;4853074;29;114394;-62
2021/10/23 03:11:57;;;;;;;15.73;9.65;;;;;;;10.94;62.62;102406.47;4852682;29;113897;-62
2021/10/23 03:14:24;;;;;;;16.25;9.50;;;;;;;10.92;62.65;102410.94;4847991;29;123755;-62
2021/10/23 03:16:51;;;;;;;18.10;10.38;;;;;;;10.91;62.59;102403.91;4851183;29;123936;-62
2021/10/23 03:19:18;;;;;;;16.63;9.75;;;;;;;10.89;62.56;102413.69;4836769;28;113066;-62
2021/10/23 03:21:46;;;;;;;16.75;9.48;;;;;;;10.87;62.44;102410.19;4852380;29;113577;-62
2021/10/23 03:24:13;;;;;;;16.65;10.38;;;;;;;10.86;62.73;102411.09;4846179;29;124552;-62
2021/10/23 03:26:40;;;;;;;18.65;9.93;;;;;;;10.84;62.65;102420.84;4853727;29;123167;-62
2021/10/23 03:29:07;;;;;;;19.75;10.20;;;;;;;10.83;62.93;102429.69;4856269;29;114564;-62
2021/10/23 03:31:34;;;;;;;18.02;10.13;;;;;;;10.80;62.65;102435.94;4847366;29;114401;-62
2021/10/23 03:34:01;;;;;;;17.58;10.30;;;;;;;10.80;62.91;102440.38;4849140;29;124779;-62
2021/10/23 03:36:28;;;;;;;25.00;10.68;;;;;;;10.78;63.00;102442.19;4844441;29;123800;-62
2021/10/23 03:38:56;;;;;;;17.73;10.93;;;;;;;10.78;62.96;102442.19;4853923;29;114380;-62
2021/10/23 03:41:23;;;;;;;18.25;10.70;;;;;;;10.76;62.75;102449.28;4849909;29;114177;-62
2021/10/23 03:43:50;;;;;;;19.63;10.68;;;;;;;10.75;63.16;102444.88;4846874;29;124076;-62
2021/10/23 03:46:17;;;;;;;18.83;10.88;;;;;;;10.74;63.10;102451.06;4851070;28;122758;-62
2021/10/23 03:48:44;;;;;;;19.88;10.95;;;;;;;10.73;63.04;102449.34;4848685;29;115490;-62
2021/10/23 03:51:11;;;;;;;18.45;10.60;;;;;;;10.70;62.62;102456.47;4851439;29;114147;-61
2021/10/23 03:53:38;;;;;;;15.93;10.35;;;;;;;10.69;62.93;102451.19;4846152;29;124397;-61
2021/10/23 03:56:06;;;;;;;23.33;11.45;;;;;;;10.68;63.03;102458.25;4842634;29;124086;-61
2021/10/23 03:58:34;;;;;;;29.48;11.75;;;;;;;10.68;62.98;102463.56;4834638;29;113360;-61
2021/10/23 04:01:01;;;;;;;31.02;11.98;;;;;;;10.66;62.89;102460.06;4840875;29;114071;-61
2021/10/23 04:03:29;;;;;;;22.35;12.70;;;;;;;10.66;62.92;102460.06;4844242;29;124007;-61
2021/10/23 04:05:56;;;;;;;21.70;11.25;;;;;;;10.67;63.11;102467.09;4847948;29;122938;-61
2021/10/23 04:08:25;;;;;;;38.03;11.55;;;;;;;10.68;63.26;102468.88;4850685;28;114675;-61
2021/10/23 04:10:52;;;;;;;23.73;11.32;;;;;;;10.69;63.40;102464.44;4850592;28;112893;-61
2021/10/23 04:13:19;;;;;;;29.48;11.95;;;;;;;10.71;63.29;102462.63;4848966;28;124752;-61
2021/10/23 04:15:47;;;;;;;31.15;12.20;;;;;;;10.73;63.64;102459.94;4842123;29;124549;-61
2021/10/23 04:18:14;;;;;;;29.48;11.35;;;;;;;10.73;63.47;102455.50;4848867;29;114846;-62
2021/10/23 04:20:41;;;;;;;30.95;12.00;;;;;;;10.76;63.66;102460.75;4850532;29;114040;-62
2021/10/23 04:23:09;;;;;;;24.60;11.60;;;;;;;10.78;63.32;102458.09;4846272;29;124858;-62
2021/10/23 04:25:36;;;;;;;31.02;11.20;;;;;;;10.78;63.72;102452.78;4850707;29;124215;-62
2021/10/23 04:28:03;;;;;;;29.42;11.65;;;;;;;10.81;63.50;102463.31;4849042;29;114312;-61
2021/10/23 04:30:31;;;;;;;19.25;11.00;;;;;;;10.80;63.57;102461.56;4846486;28;113289;-62
2021/10/23 04:32:58;;;;;;;30.73;11.60;;;;;;;10.80;63.37;102456.28;4844378;28;123447;-62
2021/10/23 04:35:25;;;;;;;22.77;11.43;;;;;;;10.79;63.35;102457.16;4843848;29;123673;-62
2021/10/23 04:37:52;;;;;;;19.55;11.25;;;;;;;10.78;63.27;102458.09;4848803;29;114716;-62
2021/10/23 04:40:19;;;;;;;27.02;11.63;;;;;;;10.79;63.62;102454.50;4846174;29;115004;-62
2021/10/23 04:42:46;;;;;;;30.23;11.43;;;;;;;10.79;63.69;102459.81;4847787;29;124719;-61
2021/10/23 04:45:13;;;;;;;31.65;10.85;;;;;;;10.78;63.55;102463.38;4839021;29;124351;-62
2021/10/23 04:47:41;;;;;;;23.45;10.88;;;;;;;10.77;63.55;102462.50;4834824;29;113339;-61
2021/10/23 04:50:08;;;;;;;22.25;10.73;;;;;;;10.76;63.54;102470.50;4851054;29;113954;-62
2021/10/23 04:52:35;;;;;;;31.10;11.95;;;;;;;10.77;63.51;102474.88;4851748;29;124904;-62
2021/10/23 04:55:03;;;;;;;27.55;11.32;;;;;;;10.75;63.32;102468.75;4844697;28;122830;-62
2021/10/23 04:57:30;;;;;;;22.83;11.43;;;;;;;10.74;63.57;102466.97;4846493;28;113327;-62
2021/10/23 04:59:57;;;;;;;24.15;10.93;;;;;;;10.75;63.46;102471.38;4849039;29;114902;-61
2021/10/23 05:02:24;;;;;;;28.88;11.55;;;;;;;10.75;63.53;102460.78;4846997;28;123047;-62
2021/10/23 05:04:51;;;;;;;23.75;11.50;;;;;;;10.75;63.73;102468.75;4848666;29;122705;-61
2021/10/23 05:07:18;;;;;;;21.17;11.45;;;;;;;10.76;63.46;102470.50;4841894;29;114538;-62
2021/10/23 05:09:45;;;;;;;35.78;12.23;;;;;;;10.77;63.92;102466.94;4844916;29;113809;-62
2021/10/23 05:12:12;;;;;;;30.55;11.25;;;;;;;10.76;63.87;102459.91;4850420;29;123030;-61
2021/10/23 05:14:40;;;;;;;29.92;11.18;;;;;;;10.77;63.67;102469.56;4845990;29;124316;-61
2021/10/23 05:17:07;;;;;;;20.35;11.25;;;;;;;10.75;63.78;102464.31;4846611;29;114366;-61
2021/10/23 05:19:34;;;;;;;23.92;11.60;;;;;;;10.76;63.85;102463.41;4837935;29;113904;-61
2021/10/23 05:22:02;;;;;;;32.03;11.23;;;;;;;10.76;63.87;102465.19;4845652;29;123415;-61
2021/10/23 05:24:29;;;;;;;22.90;11.18;;;;;;;10.76;63.83;102473.16;4847460;29;123833;-62
2021/10/23 05:26:56;;;;;;;24.52;11.70;;;;;;;10.75;63.45;102468.75;4848057;29;115172;-61
2021/10/23 05:29:23;;;;;;;34.08;11.80;;;;;;;10.74;63.80;102477.56;4854130;29;115640;-62
2021/10/23 05:31:50;;;;;;;27.05;11.60;;;;;;;10.71;63.75;102479.38;4844208;29;123849;-62
2021/10/23 05:34:17;;;;;;;18.38;11.15;;;;;;;10.73;63.90;102484.66;4849830;29;123258;-62
2021/10/23 05:36:45;;;;;;;30.88;10.80;;;;;;;10.74;64.00;102493.47;4849085;29;114329;-62
2021/10/23 05:39:12;;;;;;;25.35;10.70;;;;;;;10.73;63.78;102491.75;4847907;29;114075;-62
2021/10/23 05:41:39;;;;;;;26.55;11.20;;;;;;;10.71;63.50;102492.63;4843963;28;122953;-61
2021/10/23 05:44:06;;;;;;;24.02;10.68;;;;;;;10.71;63.81;102489.13;4851949;29;123810;-61
2021/10/23 05:46:33;;;;;;;18.30;10.88;;;;;;;10.68;63.55;102482.13;4847940;29;114753;-62
2021/10/23 05:49:01;;;;;;;22.00;11.98;;;;;;;10.67;63.56;102488.31;4848049;29;114147;-62
2021/10/23 05:51:28;;;;;;;23.13;10.80;;;;;;;10.66;63.40;102497.16;4845171;29;124301;-62
2021/10/23 05:53:55;;;;;;;26.15;10.82;;;;;;;10.65;63.58;102506.00;4850198;29;125293;-62
2021/10/23 05:56:22;;;;;;;23.30;10.38;;;;;;;10.64;63.42;102496.31;4849714;29;114039;-63
2021/10/23 05:58:51;;;;;;;21.15;10.45;;;;;;;10.63;63.45;102507.81;4850136;29;114318;-62
2021/10/23 06:01:18;;;;;;;22.90;10.80;;;;;;;10.61;63.60;102504.31;4848064;29;122816;-61
2021/10/23 06:03:45;;;;;;;18.30;10.07;;;;;;;10.60;63.40;102515.81;4850664;29;122718;-62
2021/10/23 06:06:12;;;;;;;16.95;10.60;;;;;;;10.58;63.53;102520.25;4845008;29;114983;-62
2021/10/23 06:08:40;;;;;;;24.88;10.43;;;;;;;10.58;63.59;102524.69;4843224;29;114195;-62
2021/10/23 06:11:07;;;;;;;19.08;10.55;;;;;;;10.56;63.66;102527.38;4837060;28;123017;-62
2021/10/23 06:13:35;;;;;;;22.55;10.68;;;;;;;10.56;63.42;102530.03;4849477;28;123897;-62
2021/10/23 06:16:02;;;;;;;15.98;9.95;;;;;;;10.56;63.49;102532.66;4850393;29;115820;-62
2021/10/23 06:18:31;;;;;;;16.98;11.15;;;;;;;10.56;63.57;102537.97;4842508;29;114944;-62
2021/10/23 06:20:58;;;;;;;18.65;11.35;;;;;;;10.54;63.39;102538.91;4842503;29;124810;-62
2021/10/23 06:23:30;;;;;;;20.40;10.20;;;;;;;10.52;63.53;102542.44;4851720;29;124346;-61
2021/10/23 06:25:59;;;;;;;19.35;10.77;;;;;;;10.51;63.39;102550.44;4849620;29;114572;-61
2021/10/23 06:28:26;;;;;;;16.42;10.05;;;;;;;10.48;63.46;102551.34;4849039;29;114139;-62
2021/10/23 06:30:53;;;;;;;19.95;10.52;;;;;;;10.47;63.51;102548.72;4853471;29;124819;-62
2021/10/23 06:33:21;;;;;;;16.58;10.15;;;;;;;10.46;63.46;102553.16;4845298;29;124346;-61
2021/10/23 06:35:48;;;;;;;21.42;10.20;;;;;;;10.46;63.62;102557.59;4857686;28;114203;-61
2021/10/23 06:38:15;;;;;;;18.08;10.25;;;;;;;10.45;63.37;102555.81;4852154;29;114372;-61
2021/10/23 06:40:42;;;;;;;23.52;10.15;;;;;;;10.44;63.58;102554.09;4847726;29;124153;-62
2021/10/23 06:43:11;;;;;;;18.95;10.20;;;;;;;10.42;63.26;102566.50;4847939;28;124683;-62
2021/10/23 06:45:39;;;;;;;21.67;10.05;;;;;;;10.42;63.49;102571.78;4845315;29;114549;-61
2021/10/23 06:48:07;;;;;;;16.58;9.85;;;;;;;10.42;63.39;102571.78;4848977;29;114287;-62
2021/10/23 06:50:34;;;;;;;20.85;9.88;;;;;;;10.42;63.79;102582.38;4852293;29;125510;-61
2021/10/23 06:53:01;;;;;;;20.02;10.60;;;;;;;10.43;63.57;102578.81;4844530;29;123784;-61
2021/10/23 06:55:28;;;;;;;15.57;9.73;;;;;;;10.43;63.65;102578.81;4845656;29;114611;-62
2021/10/23 06:57:56;;;;;;;20.25;9.35;;;;;;;10.44;63.50;102585.88;4846684;29;112820;-62
2021/10/23 07:00:23;;;;;;;16.30;9.55;;;;;;;10.45;63.53;102592.91;4849318;29;123406;-62
2021/10/23 07:02:50;;;;;;;16.50;9.45;;;;;;;10.45;63.71;102598.19;4845756;28;123979;-62
2021/10/23 07:05:20;;;;;;;14.40;9.90;;;;;;;10.46;63.51;102598.19;4842470;29;115302;-62
2021/10/23 07:07:47;;;;;;;18.88;9.55;;;;;;;10.48;63.74;102603.47;4852841;29;114365;-62
2021/10/23 07:10:15;;;;;;;16.77;9.05;;;;;;;10.52;63.83;102610.47;4849468;28;123083;-62
2021/10/23 07:12:47;;;;;;;15.52;9.05;;;;;;;10.57;64.01;102608.63;4843376;29;123829;-62
2021/10/23 07:15:14;;;;;;;15.25;9.43;;;;;;;10.61;63.89;102610.31;4847560;29;115041;-62
2021/10/23 07:17:42;;;;;;;18.10;10.02;;;;;;;10.66;64.11;102613.75;4847969;29;113424;-62
2021/10/23 07:20:10;;;;;;;18.40;9.23;;;;;;;10.68;63.64;102622.56;4848894;29;123842;-62
2021/10/23 07:22:38;;;;;;;15.30;9.35;;;;;;;10.70;63.96;102626.06;4850745;29;124151;-62
2021/10/23 07:25:06;;;;;;;17.77;9.68;;;;;;;10.75;64.18;102630.41;4845130;29;115086;-62
2021/10/23 07:27:34;;;;;;;15.38;9.82;;;;;;;10.79;64.16;102634.75;4842681;29;114288;-62
2021/10/23 07:30:06;;;;;;;15.63;9.13;;;;;;;10.86;63.96;102647.00;4849041;29;123848;-62
2021/10/23 07:32:34;;;;;;;15.82;9.73;;;;;;;10.92;63.79;102652.19;4852874;29;123845;-62
2021/10/23 07:35:02;;;;;;;14.95;9.90;;;;;;;10.96;63.97;102648.56;4848993;29;114697;-62
2021/10/23 07:37:29;;;;;;;15.05;9.35;;;;;;;11.01;63.98;102641.41;4855490;29;113918;-62
2021/10/23 07:39:57;;;;;;;16.55;9.45;;;;;;;11.05;63.82;102648.41;4849002;29;124370;-62
2021/10/23 07:42:25;;;;;;;19.40;9.93;;;;;;;11.07;63.93;102645.72;4848514;28;124646;-62
2021/10/23 07:44:53;;;;;;;18.73;10.30;;;;;;;11.12;63.96;102658.94;4857062;29;114393;-62
2021/10/23 07:47:21;;;;;;;20.08;10.65;;;;;;;11.13;64.04;102655.34;4857704;29;114049;-62
2021/10/23 07:49:48;;;;;;;21.38;10.77;;;;;;;11.18;63.94;102664.97;4855164;29;124373;-62
2021/10/23 07:52:16;;;;;;;16.73;11.02;;;;;;;11.25;64.07;102671.06;4855909;29;123854;-62
2021/10/23 07:54:44;;;;;;;17.38;10.45;;;;;;;11.31;63.91;102665.63;4853893;29;115318;-62
2021/10/23 07:57:11;;;;;;;19.52;11.55;;;;;;;11.35;64.03;102667.31;4846611;29;115076;-62
2021/10/23 07:59:38;;;;;;;19.50;10.90;;;;;;;11.41;64.18;102664.53;4840772;29;123416;-62
2021/10/23 08:02:07;;;;;;;20.95;10.82;;;;;;;11.46;64.31;102667.97;4856241;28;123601;-62
2021/10/23 08:04:34;;;;;;;18.77;11.32;;;;;;;11.53;64.17;102676.72;4856742;29;113117;-62
2021/10/23 08:07:03;;;;;;;20.35;11.77;;;;;;;11.60;64.40;102677.44;4857097;29;113008;-62
2021/10/23 08:09:35;;;;;;;21.80;12.00;;;;;;;11.69;64.48;102682.56;4856751;28;123501;-62
2021/10/23 08:12:04;;;;;;;24.30;12.73;;;;;;;11.77;64.40;102685.97;4859708;28;123467;-62
2021/10/23 08:14:35;;;;;;;23.60;12.93;;;;;;;11.84;64.26;102684.91;4858216;29;114703;-62
2021/10/23 08:17:03;;;;;;;22.58;13.13;;;;;;;11.93;64.48;102691.84;4854697;29;114084;-62
2021/10/23 08:19:32;;;;;;;25.60;13.55;;;;;;;12.02;64.65;102688.16;4855834;29;123927;-62
2021/10/23 08:22:00;;;;;;;24.85;13.95;;;;;;;12.10;64.30;102683.53;4854036;29;123981;-62
2021/10/23 08:24:27;;;;;;;24.25;13.80;;;;;;;12.18;64.28;102692.19;4857847;29;115119;-62
2021/10/23 08:26:54;;;;;;;29.00;14.73;;;;;;;12.24;64.26;102697.41;4856359;28;113615;-62
2021/10/23 08:29:22;;;;;;;25.20;13.48;;;;;;;12.30;64.27;102691.06;4855784;29;124122;-62
2021/10/23 08:31:50;;;;;;;25.63;14.10;;;;;;;12.37;64.31;102691.78;4854989;28;123051;-62
2021/10/23 08:34:17;;;;;;;25.40;14.23;;;;;;;12.46;64.25;102696.91;4856268;29;114010;-63
2021/10/23 08:36:44;;;;;;;28.70;14.77;;;;;;;12.52;64.50;102696.75;4856078;29;114507;-62
2021/10/23 08:39:13;;;;;;;31.02;15.98;;;;;;;12.58;64.41;102696.63;4854467;29;123184;-63
2021/10/23 08:41:43;;;;;;;30.48;15.77;;;;;;;12.64;64.24;102700.91;4856905;29;124707;-63
2021/10/23 08:44:13;;;;;;;27.40;14.38;;;;;;;12.69;64.39;102706.09;4857006;29;115119;-62
2021/10/23 08:46:41;;;;;;;28.20;15.77;;;;;;;12.74;64.29;102707.75;4854991;29;115686;-62
2021/10/23 08:49:09;;;;;;;26.75;14.55;;;;;;;12.79;64.36;102708.50;4855763;28;123630;-63
2021/10/23 08:51:36;;;;;;;28.60;15.18;;;;;;;12.83;64.32;102711.97;4855210;29;124650;-63
2021/10/23 08:54:04;;;;;;;28.83;14.73;;;;;;;12.88;64.35;102718.03;4857504;29;114612;-62
2021/10/23 08:56:34;;;;;;;26.85;14.10;;;;;;;12.94;64.48;102717.91;4854731;29;114275;-62
2021/10/23 08:59:01;;;;;;;29.58;15.25;;;;;;;13.00;64.38;102723.06;4853954;29;123973;-62
2021/10/23 09:01:29;;;;;;;31.00;15.13;;;;;;;13.08;64.30;102732.66;4854468;29;123928;-62
2021/10/23 09:03:56;;;;;;;28.33;14.77;;;;;;;13.10;64.21;102725.50;4855631;29;114161;-62
2021/10/23 09:06:38;;;;;;;29.38;15.43;;;;;;;13.14;64.14;102727.16;4854626;29;114408;-62
2021/10/23 09:09:08;;;;;;;32.13;16.25;;;;;;;13.16;64.14;102720.00;4854235;29;123976;-62
2021/10/23 09:11:43;;;;;;;31.60;16.95;;;;;;;13.21;64.09;102728.75;4840436;29;124407;-62
2021/10/23 09:14:32;;;;;;;34.45;16.95;;;;;;;13.26;64.08;102726.84;4848565;29;114404;-62
2021/10/23 09:17:03;;;;;;;31.20;16.77;;;;;;;13.32;64.17;102732.03;4836396;29;113980;-62
2021/10/23 09:19:39;;;;;;;30.77;15.88;;;;;;;13.36;64.16;102728.38;4836287;29;124168;-62
2021/10/23 09:22:20;;;;;;;30.67;16.42;;;;;;;13.39;64.00;102723.00;4852457;29;123824;-62
2021/10/23 09:25:18;;;;;;;30.60;16.38;;;;;;;13.44;64.00;102721.06;4857094;29;114297;-62
2021/10/23 09:28:00;;;;;;;27.05;15.73;;;;;;;13.49;63.86;102734.25;4855247;29;113917;-62
2021/10/23 09:30:34;;;;;;;30.25;16.98;;;;;;;13.52;64.04;102727.97;4855163;29;124303;-62
2021/10/23 09:33:05;;;;;;;31.97;17.70;;;;;;;13.57;63.95;102731.38;4855078;29;124352;-62
2021/10/23 09:35:35;;;;;;;28.00;16.73;;;;;;;13.60;64.09;102733.97;4854999;28;114204;-62
2021/10/23 09:38:02;;;;;;;31.83;17.75;;;;;;;13.63;64.02;102736.53;4853281;29;116336;-62
2021/10/23 09:40:31;;;;;;;32.15;18.20;;;;;;;13.70;64.08;102737.25;4853157;29;123895;-62
2021/10/23 09:43:14;;;;;;;34.15;17.95;;;;;;;13.75;63.93;102736.22;4836101;29;124324;-62
2021/10/23 09:45:56;;;;;;;30.55;17.42;;;;;;;13.77;64.04;102745.03;4844226;29;114888;-62
2021/10/23 09:48:36;;;;;;;30.75;17.33;;;;;;;13.81;63.92;102752.00;4846556;29;114419;-62
2021/10/23 09:51:29;;;;;;;34.70;16.55;;;;;;;13.85;64.01;102751.94;4839730;29;124573;-62
2021/10/23 09:54:04;;;;;;;28.70;15.43;;;;;;;13.87;64.00;102744.78;4848452;29;124019;-62
2021/10/23 09:56:35;;;;;;;28.02;15.50;;;;;;;13.89;63.66;102737.59;4857960;29;114729;-62
2021/10/23 09:59:11;;;;;;;30.85;16.00;;;;;;;13.90;63.79;102734.00;4859233;28;113370;-62
2021/10/23 10:01:42;;;;;;;;;;;;;;;13.89;63.90;102737.59;4855910;29;124847;-62
2021/10/23 10:04:12;;;;;;;27.30;14.48;;;;;;;13.95;64.03;102737.41;4859559;29;124216;-62
2021/10/23 10:06:47;;;;;;;27.17;14.20;;;;;;;14.02;64.01;102744.31;4858448;29;115082;-62
2021/10/23 10:09:24;;;;;;;27.25;14.85;;;;;;;14.09;64.14;102745.00;4858584;28;112858;-62
2021/10/23 10:11:54;;;;;;;26.70;13.73;;;;;;;14.17;64.20;102738.53;4854557;29;124821;-62
2021/10/23 10:14:26;;;;;;;28.27;14.98;;;;;;;14.26;64.18;102744.50;4859862;29;123923;-62
2021/10/23 10:16:56;;;;;;;25.80;14.38;;;;;;;14.36;64.21;102744.19;4857016;29;114656;-62
2021/10/23 10:19:24;;;;;;;26.88;14.40;;;;;;;14.45;63.95;102748.38;4850839;29;113986;-62
2021/10/23 10:21:52;;;;;;;25.33;13.90;;;;;;;14.49;64.00;102744.69;4848071;29;123701;-62
2021/10/23 10:24:33;;;;;;;24.50;13.85;;;;;;;14.58;64.11;102749.78;4858948;29;123783;-62
2021/10/23 10:27:04;;;;;;;24.98;13.68;;;;;;;14.69;63.82;102756.53;4857758;29;115252;-62
2021/10/23 10:29:58;;;;;;;25.17;13.90;;;;;;;14.72;63.74;102753.78;4858756;28;113935;-62
2021/10/23 10:32:34;;;;;;;28.98;13.95;;;;;;;14.77;63.76;102750.06;4844394;29;124140;-62
2021/10/23 10:42:52;;;;;;;30.48;14.52;;;;;;;15.12;63.87;102760.50;4841992;29;124875;-62
2021/10/23 10:45:28;;;;;;;29.67;14.02;;;;;;;15.23;63.74;102758.34;4842326;29;124628;-62
2021/10/23 10:48:20;;;;;;;27.83;13.43;;;;;;;15.29;63.32;102752.78;4839679;29;113907;-62
2021/10/23 10:51:21;;;;;;;27.13;13.90;;;;;;;15.36;63.49;102751.66;4855236;29;112939;-62
2021/10/23 10:53:48;;;;;;;24.52;13.43;;;;;;;15.47;63.49;102750.41;4834909;29;124252;-62
2021/10/23 10:56:17;;;;;;;30.27;13.63;;;;;;;15.57;63.45;102746.47;4851295;29;124669;-62
2021/10/23 10:58:52;;;;;;;28.15;14.23;;;;;;;15.65;63.15;102744.44;4858396;29;114944;-62
2021/10/23 11:01:27;;;;;;;27.17;13.68;;;;;;;15.70;62.98;102742.44;4855155;29;113980;-62
2021/10/23 11:03:57;;;;;;;31.00;15.55;;;;;;;15.74;62.96;102744.09;4857988;29;124139;-62
2021/10/23 11:06:37;;;;;;;28.35;14.02;;;;;;;15.77;62.64;102736.00;4857693;28;123082;-62
2021/10/23 11:09:16;;;;;;;27.98;14.68;;;;;;;15.81;62.57;102743.91;4856711;29;114384;-62
2021/10/23 11:14:38;;;;;;;31.05;14.65;;;;;;;15.87;62.73;102741.00;4857643;28;123581;-62
2021/10/23 11:17:12;;;;;;;30.17;14.65;;;;;;;15.94;62.56;102739.84;4856005;29;124246;-62
2021/10/23 11:19:40;;;;;;;27.30;14.65;;;;;;;16.00;62.45;102739.59;4846545;29;115919;-62
2021/10/23 11:22:18;;;;;;;28.35;15.00;;;;;;;16.06;62.59;102739.38;4855593;29;115398;-62
2021/10/23 11:24:50;;;;;;;25.88;13.90;;;;;;;16.12;62.44;102741.84;4856602;29;124321;-62